Time;durP1;ratioP1;P1;durP2;ratioP2;P2;SDS_P1;SDS_P2;PMS_P1;PMS_P2;Temp;Humidity;BMP_temperature;BMP_pressure;BME280_temperature;BME280_humidity;BME280_pressure;Samples;Min_cycle;Max_cycle;Signal;HPM_P1;HPM_P2
2022/02/09 00:03:57;;;;;;;5.80;5.25;;;;;;;4.71;95.72;97207.35;1692686;83;21074;-83
2022/02/09 00:06:27;;;;;;;5.03;4.62;;;;;;;4.71;95.81;97200.09;1695707;82;20952;-84
2022/02/09 00:08:42;;;;;;;5.28;4.78;;;;;;;4.74;95.73;97210.98;1671286;84;20991;-83
2022/02/09 00:11:12;;;;;;;6.95;5.40;;;;;;;4.76;95.42;97216.83;1678825;84;21043;-83
2022/02/09 00:18:52;;;;;;;6.70;6.10;;;;;;;4.83;95.36;97227.43;1690865;83;22235;-84
2022/02/09 00:26:52;;;;;;;5.75;5.05;;;;;;;4.78;95.50;97219.27;1694876;84;21324;-84
2022/02/09 00:45:13;;;;;;;6.92;6.33;;;;;;;4.88;95.40;97243.78;1687211;84;21020;-84
2022/02/09 01:39:00;;;;;;;10.63;9.00;;;;;;;4.95;94.92;97272.79;1663250;85;21028;-83
2022/02/09 01:57:11;;;;;;;10.95;9.73;;;;;;;4.97;94.69;97278.63;1678920;85;21044;-83
2022/02/09 01:59:38;;;;;;;16.82;13.50;;;;;;;4.96;94.69;97280.05;1676695;85;20980;-84
2022/02/09 02:02:05;;;;;;;7.33;6.62;;;;;;;4.95;94.72;97279.23;1668865;85;20983;-84
2022/02/09 02:04:31;;;;;;;7.95;7.15;;;;;;;4.94;94.60;97275.02;1660095;85;21000;-83
2022/02/09 02:06:57;;;;;;;6.75;6.08;;;;;;;4.94;94.59;97274.20;1668321;85;21005;-84
2022/02/09 02:09:25;;;;;;;8.78;6.55;;;;;;;4.92;94.53;97271.76;1677063;83;21371;-83
2022/02/09 02:16:57;;;;;;;10.45;9.45;;;;;;;4.95;94.52;97271.98;1659886;85;21016;-84
2022/02/09 02:22:27;;;;;;;6.90;6.30;;;;;;;4.87;94.68;97277.73;1674899;85;21056;-83
2022/02/09 02:27:22;;;;;;;6.17;5.55;;;;;;;4.86;94.78;97275.28;1650703;86;20994;-84
2022/02/09 02:32:35;;;;;;;6.40;5.80;;;;;;;4.91;94.94;97280.90;1676146;85;21362;-83
2022/02/09 02:40:55;;;;;;;8.85;8.05;;;;;;;4.96;95.23;97292.45;1665497;85;21067;-83
2022/02/09 03:17:34;;;;;;;9.05;8.15;;;;;;;4.94;95.16;97311.55;1659438;84;21068;-84
2022/02/09 03:20:00;;;;;;;8.10;7.15;;;;;;;4.90;94.83;97315.32;1689333;84;21016;-84
2022/02/09 03:22:27;;;;;;;6.08;5.50;;;;;;;4.90;94.84;97315.32;1693914;83;21076;-83
2022/02/09 03:56:12;;;;;;;9.13;7.65;;;;;;;4.92;95.08;97324.55;1692201;84;21047;-83
2022/02/09 03:58:16;;;;;;;14.80;11.95;;;;;;;4.94;95.10;97317.52;1694424;84;21056;-83
2022/02/09 04:00:45;;;;;;;11.57;9.38;;;;;;;4.96;94.92;97320.78;1682388;84;21048;-83
2022/02/09 04:03:14;;;;;;;8.83;7.42;;;;;;;4.96;94.77;97315.63;1702695;84;21383;-84
2022/02/09 04:05:39;;;;;;;8.73;7.83;;;;;;;4.97;94.67;97318.55;1682792;84;21507;-83
2022/02/09 04:08:09;;;;;;;10.13;9.15;;;;;;;4.96;94.69;97318.67;1698185;83;20972;-84
2022/02/09 04:10:41;;;;;;;9.43;8.63;;;;;;;4.94;94.87;97318.80;1691384;83;21061;-84
2022/02/09 04:43:31;;;;;;;8.48;7.67;;;;;;;4.96;95.81;97308.38;1669470;83;21383;-83
2022/02/09 04:50:35;;;;;;;10.98;9.88;;;;;;;5.07;95.94;97307.05;1670697;85;21039;-84
2022/02/09 04:53:16;;;;;;;11.15;10.05;;;;;;;5.07;95.93;97318.64;1677157;85;21035;-83
2022/02/09 04:58:25;;;;;;;6.78;6.08;;;;;;;5.04;95.96;97303.41;1659204;85;21411;-83
2022/02/09 05:01:06;;;;;;;10.43;9.33;;;;;;;5.05;96.00;97307.64;1668177;85;21063;-84
2022/02/09 05:28:09;;;;;;;11.35;10.00;;;;;;;5.21;95.55;97327.83;1682347;85;21440;-83
2022/02/09 05:30:32;;;;;;;19.42;12.93;;;;;;;5.22;95.58;97323.02;1693851;84;21013;-84
2022/02/09 05:32:58;;;;;;;29.40;17.62;;;;;;;5.22;95.72;97319.16;1692527;84;21021;-84
2022/02/09 05:35:23;;;;;;;21.68;12.43;;;;;;;5.22;95.77;97317.86;1693916;83;22262;-83
2022/02/09 05:37:52;;;;;;;33.25;13.80;;;;;;;5.25;95.70;97329.20;1659019;83;20965;-83
2022/02/09 05:40:18;;;;;;;23.05;10.55;;;;;;;5.26;95.52;97330.36;1678225;85;21021;-84
2022/02/09 05:42:44;;;;;;;137.50;61.10;;;;;;;5.26;95.41;97332.94;1678772;83;21385;-84
2022/02/09 05:45:11;;;;;;;212.80;96.87;;;;;;;5.28;95.37;97336.20;1676151;84;21052;-84
2022/02/09 05:58:21;;;;;;;254.05;96.32;;;;;;;5.24;95.33;97346.42;1680972;83;21387;-83
2022/02/09 06:00:47;;;;;;;498.47;216.33;;;;;;;5.29;95.35;97349.43;1677001;85;21427;-84
2022/02/09 06:03:10;;;;;;;695.65;307.40;;;;;;;5.25;95.17;97350.63;1656332;85;21508;-84
2022/02/09 06:05:35;;;;;;;338.30;106.78;;;;;;;5.23;95.31;97355.56;1690462;83;21029;-83
2022/02/09 06:08:01;;;;;;;71.33;23.02;;;;;;;5.22;95.45;97355.22;1677462;83;21076;-83
2022/02/09 06:10:31;;;;;;;10.95;7.78;;;;;;;5.21;95.62;97361.32;1682189;84;21024;-84
2022/02/09 06:13:14;;;;;;;56.77;20.20;;;;;;;5.20;95.50;97360.47;1675026;84;21021;-83
2022/02/09 06:20:56;;;;;;;26.02;13.43;;;;;;;5.22;95.90;97359.91;1667193;85;21007;-84
2022/02/09 06:23:20;;;;;;;125.97;61.70;;;;;;;5.22;95.94;97368.11;1679902;83;21011;-83
2022/02/09 06:25:46;;;;;;;107.25;53.23;;;;;;;5.21;96.22;97365.19;1681200;85;21023;-84
2022/02/09 06:28:12;;;;;;;27.42;12.80;;;;;;;5.21;96.10;97367.29;1662010;85;20988;-83
2022/02/09 06:30:38;;;;;;;79.10;25.72;;;;;;;5.24;96.08;97366.22;1675741;83;20984;-83
2022/02/09 06:33:04;;;;;;;107.12;32.40;;;;;;;5.25;96.25;97360.12;1668683;83;20980;-84
2022/02/09 06:35:30;;;;;;;43.63;16.00;;;;;;;5.25;96.11;97356.26;1674532;83;20972;-84
2022/02/09 06:37:58;;;;;;;98.22;31.12;;;;;;;5.24;95.92;97355.91;1676394;85;22100;-84
2022/02/09 06:40:23;;;;;;;34.53;13.90;;;;;;;5.24;96.07;97359.30;1666745;85;20956;-83
2022/02/09 06:42:49;;;;;;;79.50;33.70;;;;;;;5.22;96.27;97361.67;1676172;83;20992;-83
2022/02/09 06:45:21;;;;;;;184.32;85.67;;;;;;;5.22;96.53;97368.92;1669871;85;21481;-83
2022/02/09 06:47:42;;;;;;;108.67;32.28;;;;;;;5.24;96.48;97370.09;1662508;83;21422;-83
2022/02/09 06:50:14;;;;;;;107.58;38.53;;;;;;;5.26;96.34;97369.48;1670127;85;21012;-83
2022/02/09 06:52:44;;;;;;;142.82;44.05;;;;;;;5.29;96.29;97377.78;1666718;85;21016;-83
2022/02/09 06:57:58;;;;;;;55.98;22.10;;;;;;;5.39;96.46;97387.70;1671407;85;21012;-83
2022/02/09 07:00:14;;;;;;;49.25;20.27;;;;;;;5.40;96.41;97389.33;1674362;85;21415;-84
2022/02/09 07:02:41;;;;;;;25.35;11.05;;;;;;;5.38;96.27;97386.54;1662150;85;21389;-84
2022/02/09 07:05:09;;;;;;;9.98;8.83;;;;;;;5.39;96.22;97390.75;1667248;85;21019;-83
2022/02/09 07:07:34;;;;;;;74.67;37.45;;;;;;;5.42;96.23;97387.92;1664961;85;20999;-84
2022/02/09 07:10:00;;;;;;;55.35;23.30;;;;;;;5.41;96.12;97387.09;1676235;85;21068;-84
2022/02/09 07:12:26;;;;;;;59.40;26.15;;;;;;;5.43;96.24;97384.39;1653304;85;21398;-84
2022/02/09 07:14:53;;;;;;;27.95;14.55;;;;;;;5.46;96.40;97376.41;1663233;85;21150;-84
2022/02/09 07:17:19;;;;;;;38.05;18.05;;;;;;;5.48;96.40;97376.28;1678301;85;21411;-83
2022/02/09 07:19:53;;;;;;;18.92;10.90;;;;;;;5.47;96.38;97375.94;1668977;83;21028;-83
2022/02/09 07:22:22;;;;;;;22.55;12.95;;;;;;;5.49;96.48;97372.28;1667913;85;21009;-83
2022/02/09 07:24:41;;;;;;;22.20;12.68;;;;;;;5.49;96.41;97376.63;1665981;85;21450;-84
2022/02/09 07:27:28;;;;;;;30.97;15.60;;;;;;;5.53;96.39;97374.13;1681030;85;21427;-86
2022/02/09 07:29:52;;;;;;;52.85;27.20;;;;;;;5.53;96.36;97372.40;1676953;84;20979;-83
2022/02/09 07:32:19;;;;;;;107.37;48.83;;;;;;;5.55;96.53;97373.09;1674313;83;21187;-83
2022/02/09 07:34:44;;;;;;;244.62;99.45;;;;;;;5.53;96.49;97373.69;1679878;83;21064;-83
2022/02/09 07:37:10;;;;;;;83.62;42.85;;;;;;;5.54;96.56;97369.34;1688306;85;20981;-83
2022/02/09 07:39:37;;;;;;;549.62;236.00;;;;;;;5.56;96.58;97370.03;1680214;85;21029;-84
2022/02/09 07:42:09;;;;;;;64.12;33.05;;;;;;;5.59;96.56;97367.20;1673960;84;21069;-84
2022/02/09 07:44:45;;;;;;;102.67;52.27;;;;;;;5.64;96.59;97366.34;1683034;83;21464;-83
2022/02/09 07:52:22;;;;;;;59.60;30.17;;;;;;;5.66;96.29;97368.31;1687205;84;21521;-83
2022/02/09 07:54:40;;;;;;;84.67;41.95;;;;;;;5.67;96.76;97371.23;1679540;84;20978;-83
2022/02/09 07:57:07;;;;;;;97.15;55.00;;;;;;;5.67;96.67;97368.19;1683808;83;21387;-84
2022/02/09 07:59:32;;;;;;;51.95;30.48;;;;;;;5.72;96.86;97367.35;1674681;85;21041;-84
2022/02/09 08:01:58;;;;;;;66.05;38.35;;;;;;;5.76;96.85;97364.05;1686652;83;20993;-84
2022/02/09 08:04:24;;;;;;;87.60;58.98;;;;;;;5.80;96.89;97369.28;1683649;83;21348;-84
2022/02/09 08:06:51;;;;;;;125.90;84.35;;;;;;;5.85;96.91;97367.12;1674801;85;21038;-83
2022/02/09 08:09:30;;;;;;;98.12;63.75;;;;;;;5.87;96.88;97363.97;1667698;85;21001;-83
2022/02/09 08:12:00;;;;;;;105.90;62.85;;;;;;;5.91;97.05;97365.84;1664964;85;21072;-84
2022/02/09 08:23:36;;;;;;;32.78;17.35;;;;;;;6.09;96.81;97368.16;1690308;84;21064;-84
2022/02/09 08:32:49;;;;;;;35.30;23.32;;;;;;;6.29;96.81;97371.63;1700842;84;21412;-84
2022/02/09 08:35:10;;;;;;;73.97;46.75;;;;;;;6.30;96.62;97370.20;1706221;84;21312;-84
2022/02/09 08:37:36;;;;;;;106.58;71.47;;;;;;;6.31;96.40;97371.84;1681132;84;21054;-85
2022/02/09 08:40:03;;;;;;;81.92;49.13;;;;;;;6.34;96.20;97366.88;1700115;83;21068;-85
2022/02/09 08:42:28;;;;;;;55.98;32.03;;;;;;;6.38;96.24;97358.42;1688474;84;21507;-84
2022/02/09 08:44:54;;;;;;;16.70;11.20;;;;;;;6.39;96.08;97363.45;1693875;84;21131;-83
2022/02/09 08:47:20;;;;;;;18.45;11.08;;;;;;;6.39;96.00;97364.75;1693477;83;21042;-84
2022/02/09 08:49:47;;;;;;;15.58;9.95;;;;;;;6.39;96.12;97363.45;1686255;84;20976;-85
2022/02/09 08:52:13;;;;;;;31.45;18.95;;;;;;;6.39;96.17;97361.34;1695796;82;20992;-85
2022/02/09 08:54:38;;;;;;;36.05;18.77;;;;;;;6.41;96.18;97354.28;1700253;84;21396;-84
2022/02/09 08:57:09;;;;;;;9.63;7.20;;;;;;;6.42;96.08;97360.61;1683739;82;20969;-84
2022/02/09 08:59:32;;;;;;;11.63;9.55;;;;;;;6.44;96.00;97357.41;1684865;84;21518;-84
2022/02/09 09:02:04;;;;;;;13.20;8.75;;;;;;;6.46;95.94;97354.22;1697837;84;20968;-85
2022/02/09 09:04:32;;;;;;;10.58;8.45;;;;;;;6.44;95.60;97361.29;1682467;84;21064;-84
2022/02/09 09:06:57;;;;;;;10.18;7.10;;;;;;;6.49;95.90;97362.98;1705129;84;21004;-84
2022/02/09 10:03:13;;;;;;;25.57;14.60;;;;;;;6.93;94.66;97360.90;1656650;85;20988;-85
2022/02/09 10:34:21;;;;;;;10.88;7.05;;;;;;;7.35;94.42;97339.95;1682308;85;21127;-85
2022/02/09 10:36:54;;;;;;;13.32;8.03;;;;;;;7.37;93.95;97336.75;1680561;85;20980;-85
2022/02/09 10:39:42;;;;;;;31.85;14.60;;;;;;;7.38;93.96;97333.20;1686030;85;21015;-85
2022/02/09 10:42:55;;;;;;;8.23;5.83;;;;;;;7.41;93.96;97329.05;1664871;84;20972;-85
2022/02/09 10:44:50;;;;;;;10.85;6.55;;;;;;;7.42;93.67;97321.62;1640507;84;21103;-85
2022/02/09 10:47:25;;;;;;;5.47;4.22;;;;;;;7.46;93.52;97326.85;1674760;85;21513;-85
2022/02/09 10:50:27;;;;;;;25.50;13.00;;;;;;;7.52;93.60;97325.02;1676911;85;21402;-86
2022/02/09 10:52:53;;;;;;;20.20;9.80;;;;;;;7.51;93.50;97323.39;1674559;85;21027;-85
2022/02/09 10:55:43;;;;;;;11.57;6.67;;;;;;;7.52;93.38;97319.84;1682765;85;21478;-85
2022/02/09 10:58:15;;;;;;;7.65;4.90;;;;;;;7.52;93.23;97315.48;1657139;85;21086;-85
2022/02/09 11:00:44;;;;;;;3.45;2.50;;;;;;;7.60;93.46;97307.50;1663573;85;20956;-85
2022/02/09 11:03:17;;;;;;;2.92;2.37;;;;;;;7.64;93.16;97300.59;1680983;85;21032;-85
2022/02/09 11:05:44;;;;;;;3.98;3.30;;;;;;;7.64;93.02;97304.95;1673242;83;21008;-85
2022/02/09 11:08:11;;;;;;;2.50;1.62;;;;;;;7.63;93.19;97304.63;1677378;85;21025;-86
2022/02/09 11:10:37;;;;;;;2.35;1.77;;;;;;;7.65;93.41;97303.55;1676188;83;21565;-85
2022/02/09 11:13:12;;;;;;;2.85;1.92;;;;;;;7.66;92.65;97304.37;1671652;85;20968;-85
2022/02/09 11:15:41;;;;;;;3.25;1.90;;;;;;;7.64;92.30;97307.06;1665113;85;21071;-85
2022/02/09 11:18:10;;;;;;;2.55;2.10;;;;;;;7.66;92.59;97306.47;1664994;83;21119;-85
2022/02/09 11:20:58;;;;;;;5.78;3.52;;;;;;;7.66;92.73;97303.89;1655817;85;21083;-85
2022/02/09 11:23:57;;;;;;;4.53;3.72;;;;;;;7.69;93.10;97301.50;1664098;85;21004;-85
2022/02/09 11:35:04;;;;;;;5.40;3.05;;;;;;;7.88;92.48;97298.02;1662561;85;21036;-85
2022/02/09 12:11:41;;;;;;;13.35;6.62;;;;;;;7.91;91.90;97284.79;1619798;88;21381;-85
2022/02/09 12:16:45;;;;;;;12.93;6.95;;;;;;;7.91;91.49;97270.55;1638578;87;21050;-85
2022/02/09 12:19:25;;;;;;;11.03;7.33;;;;;;;7.92;91.07;97269.59;1631840;86;21046;-83
2022/02/09 12:21:52;;;;;;;6.30;4.30;;;;;;;7.90;90.68;97259.39;1626492;87;21061;-83
2022/02/09 12:24:26;;;;;;;8.13;5.75;;;;;;;7.87;91.02;97270.03;1612352;87;21039;-83
2022/02/09 12:27:06;;;;;;;12.95;11.65;;;;;;;7.82;90.38;97271.77;1618994;87;21104;-82
2022/02/09 12:29:42;;;;;;;7.95;7.17;;;;;;;7.79;90.19;97260.38;1626513;87;21048;-83
2022/02/09 12:32:20;;;;;;;6.47;4.85;;;;;;;7.78;89.94;97266.52;1627480;87;21383;-83
2022/02/09 12:34:58;;;;;;;23.57;14.98;;;;;;;7.70;89.37;97254.78;1629754;87;21028;-83
2022/02/09 12:37:26;;;;;;;6.33;5.10;;;;;;;7.61;89.30;97260.80;1621086;86;21362;-82
2022/02/09 12:40:00;;;;;;;4.40;3.98;;;;;;;7.59;89.75;97259.31;1627023;87;21522;-83
2022/02/09 12:42:33;;;;;;;6.30;5.25;;;;;;;7.61;89.67;97262.57;1623068;87;21031;-83
2022/02/09 12:45:10;;;;;;;7.58;6.83;;;;;;;7.58;89.25;97260.27;1666690;85;20972;-83
2022/02/09 12:47:45;;;;;;;11.88;10.78;;;;;;;7.50;88.73;97264.87;1670462;85;21509;-82
2022/02/09 12:50:15;;;;;;;10.65;9.55;;;;;;;7.42;88.82;97262.97;1671699;83;21079;-82
2022/02/09 12:52:45;;;;;;;5.97;5.47;;;;;;;7.41;89.09;97265.22;1678660;83;21032;-82
2022/02/09 12:55:18;;;;;;;8.10;7.20;;;;;;;7.43;89.40;97265.08;1671967;84;21071;-82
2022/02/09 12:57:57;;;;;;;6.87;6.17;;;;;;;7.44;88.97;97268.81;1667054;85;21367;-83
2022/02/09 13:00:29;;;;;;;5.33;4.65;;;;;;;7.41;88.90;97269.58;1672257;85;21005;-83
2022/02/09 13:02:59;;;;;;;8.65;6.65;;;;;;;7.35;88.55;97276.13;1665029;85;21028;-82
2022/02/09 13:05:26;;;;;;;6.28;4.25;;;;;;;7.29;88.68;97266.33;1603154;88;21087;-83
2022/02/09 13:08:00;;;;;;;4.65;4.00;;;;;;;7.32;88.48;97269.11;1666339;83;20988;-82
2022/02/09 13:10:33;;;;;;;4.65;4.10;;;;;;;7.33;88.55;97261.72;1658549;85;21020;-82
2022/02/09 13:13:06;;;;;;;5.35;4.85;;;;;;;7.37;89.04;97260.48;1671038;85;21438;-83
2022/02/09 13:15:31;;;;;;;4.70;4.20;;;;;;;7.37;88.84;97263.88;1664637;84;21047;-82
2022/02/09 13:26:22;;;;;;;10.15;6.50;;;;;;;7.23;88.09;97270.77;1677918;85;21072;-82
2022/02/09 14:03:35;;;;;;;8.08;7.03;;;;;;;7.28;88.19;97274.23;1676618;85;21822;-82
2022/02/09 14:23:58;;;;;;;19.90;12.40;;;;;;;6.98;87.19;97304.45;1667252;85;21049;-82
2022/02/09 14:53:22;;;;;;;18.50;11.78;;;;;;;6.66;87.22;97285.82;1657491;85;21384;-84
2022/02/09 14:56:05;;;;;;;9.65;8.43;;;;;;;6.63;87.24;97294.18;1655522;85;21007;-85
2022/02/09 14:58:26;;;;;;;15.75;9.68;;;;;;;6.67;87.27;97280.99;1666124;85;21081;-85
2022/02/09 15:01:41;;;;;;;9.28;7.83;;;;;;;6.68;86.86;97281.36;1667348;85;21028;-84
2022/02/09 15:06:19;;;;;;;12.18;9.83;;;;;;;6.64;86.80;97280.80;1658632;85;21008;-85
2022/02/09 15:11:01;;;;;;;13.80;9.88;;;;;;;6.55;86.92;97279.85;1645120;85;21024;-84
2022/02/09 15:16:06;;;;;;;34.60;19.60;;;;;;;6.55;86.88;97284.20;1664232;85;21051;-84
2022/02/09 15:21:25;;;;;;;17.77;13.00;;;;;;;6.53;86.75;97284.81;1683475;84;21490;-84
2022/02/09 15:23:45;;;;;;;19.00;13.62;;;;;;;6.50;86.59;97280.70;1690254;84;21073;-84
2022/02/09 15:26:11;;;;;;;32.55;20.02;;;;;;;6.45;86.83;97286.76;1684748;84;21006;-84
2022/02/09 15:28:37;;;;;;;24.60;19.50;;;;;;;6.43;86.83;97282.20;1686212;84;20987;-85
2022/02/09 15:31:13;;;;;;;24.98;18.82;;;;;;;6.41;86.75;97286.69;1685868;84;21059;-84
2022/02/09 15:33:43;;;;;;;12.20;8.80;;;;;;;6.42;86.73;97279.77;1684146;84;20991;-85
2022/02/09 15:36:08;;;;;;;17.25;12.50;;;;;;;6.39;86.38;97285.20;1680700;84;21398;-84
2022/02/09 15:38:43;;;;;;;65.97;41.08;;;;;;;6.37;86.59;97283.23;1698682;84;21403;-84
2022/02/09 15:41:13;;;;;;;47.78;32.33;;;;;;;6.33;86.59;97277.49;1677512;84;20996;-84
2022/02/09 15:56:18;;;;;;;38.83;19.60;;;;;;;6.25;86.63;97273.48;1671212;82;21106;-85
2022/02/09 16:05:37;;;;;;;57.83;27.13;;;;;;;6.08;86.92;97271.55;1667890;83;20948;-84
2022/02/09 16:23:25;;;;;;;22.37;13.85;;;;;;;5.93;87.23;97266.75;1658734;85;20984;-84
2022/02/09 16:46:58;;;;;;;29.50;22.30;;;;;;;5.75;87.60;97274.73;1666501;85;21469;-84
2022/02/09 16:49:55;;;;;;;32.85;24.60;;;;;;;5.71;87.59;97281.09;1664868;85;20977;-84
2022/02/09 16:52:23;;;;;;;40.83;26.42;;;;;;;5.72;87.80;97287.89;1684898;85;21075;-84
2022/02/09 16:54:55;;;;;;;30.20;21.20;;;;;;;5.71;87.75;97287.55;1685718;85;21040;-84
2022/02/09 17:08:26;;;;;;;22.73;15.75;;;;;;;5.70;87.69;97282.86;1673732;84;21007;-84
2022/02/09 17:21:20;;;;;;;14.73;10.88;;;;;;;5.71;87.95;97299.15;1658796;85;21403;-84
2022/02/09 17:23:47;;;;;;;13.05;10.18;;;;;;;5.70;87.88;97303.97;1664414;85;21072;-84
2022/02/09 17:26:15;;;;;;;26.42;18.10;;;;;;;5.68;87.90;97298.09;1686380;85;22238;-84
2022/02/09 17:28:45;;;;;;;43.02;25.15;;;;;;;5.68;87.69;97300.67;1678842;85;20986;-84
2022/02/09 17:33:48;;;;;;;42.58;22.07;;;;;;;5.72;87.90;97302.89;1655360;85;21097;-82
2022/02/09 17:36:20;;;;;;;45.25;24.07;;;;;;;5.74;87.98;97296.30;1656683;85;21391;-82
2022/02/09 17:38:52;;;;;;;29.50;17.98;;;;;;;5.72;88.00;97307.23;1659718;85;20985;-84
2022/02/09 17:57:50;;;;;;;240.70;133.50;;;;;;;5.78;88.32;97291.70;1658053;86;21053;-84
2022/02/09 18:00:16;;;;;;;73.65;37.75;;;;;;;5.77;88.14;97296.05;1660220;85;21004;-82
2022/02/09 18:02:51;;;;;;;55.73;24.23;;;;;;;5.80;88.02;97296.25;1668973;85;21454;-82
2022/02/09 18:05:24;;;;;;;46.75;21.42;;;;;;;5.81;87.92;97296.59;1655869;85;21014;-84
2022/02/09 18:07:52;;;;;;;39.03;19.00;;;;;;;5.83;88.00;97297.28;1655423;85;21001;-84
2022/02/09 18:10:26;;;;;;;26.48;14.80;;;;;;;5.83;88.05;97303.72;1649644;85;20993;-83
2022/02/09 18:39:59;;;;;;;53.35;21.50;;;;;;;5.64;88.31;97333.64;1674202;85;21028;-84
2022/02/09 18:42:36;;;;;;;137.15;44.25;;;;;;;5.58;88.32;97326.89;1660052;85;20973;-86
2022/02/09 18:44:33;;;;;;;76.42;29.55;;;;;;;5.52;88.46;97325.63;1651611;85;20980;-84
2022/02/09 18:58:01;;;;;;;69.80;25.08;;;;;;;5.43;87.71;97324.64;1663867;85;21008;-84
2022/02/09 19:05:17;;;;;;;16.75;10.13;;;;;;;5.33;87.56;97320.36;1668995;83;21020;-84
2022/02/09 19:18:30;;;;;;;65.12;23.02;;;;;;;5.27;87.56;97333.75;1667292;85;21044;-83
2022/02/09 19:29:35;;;;;;;49.98;17.27;;;;;;;5.26;87.48;97337.28;1699005;83;21008;-84
2022/02/09 19:31:24;;;;;;;31.50;14.47;;;;;;;5.26;87.37;97334.23;1684872;83;20973;-84
2022/02/09 19:47:45;;;;;;;84.25;31.40;;;;;;;5.26;87.11;97332.13;1700319;84;21566;-83
2022/02/09 19:52:48;;;;;;;74.55;24.60;;;;;;;5.24;86.94;97334.83;1686589;84;21096;-83
2022/02/09 19:57:27;;;;;;;81.47;26.37;;;;;;;5.22;86.60;97338.00;1708257;84;21074;-83
2022/02/09 19:59:55;;;;;;;91.00;30.48;;;;;;;5.22;86.37;97331.56;1703892;83;21444;-83
2022/02/09 20:02:21;;;;;;;61.02;21.93;;;;;;;5.24;85.59;97341.74;1692897;84;21047;-83
2022/02/09 20:04:47;;;;;;;79.37;24.77;;;;;;;5.21;85.66;97337.66;1681710;84;21051;-83
2022/02/09 20:07:12;;;;;;;80.77;25.10;;;;;;;5.22;85.52;97331.56;1702605;84;21083;-83
2022/02/09 20:09:58;;;;;;;45.88;17.40;;;;;;;5.21;85.40;97332.98;1684203;84;21016;-83
2022/02/09 20:12:25;;;;;;;73.85;23.80;;;;;;;5.16;85.03;97336.38;1688394;84;21367;-83
2022/02/09 20:14:51;;;;;;;101.35;36.23;;;;;;;5.15;84.35;97340.72;1704492;84;21067;-83
2022/02/09 20:17:17;;;;;;;119.33;36.48;;;;;;;5.15;84.13;97339.42;1699930;83;21076;-83
2022/02/09 20:19:53;;;;;;;82.27;29.52;;;;;;;5.13;83.42;97336.98;1683279;84;21476;-83
2022/02/09 20:22:15;;;;;;;92.55;29.50;;;;;;;5.13;83.81;97336.16;1668925;85;21000;-83
2022/02/09 20:24:40;;;;;;;79.85;26.30;;;;;;;5.11;83.50;97336.76;1690743;83;21466;-83
2022/02/09 20:27:06;;;;;;;42.35;15.95;;;;;;;5.08;83.31;97333.97;1676275;83;20996;-83
2022/02/09 20:29:35;;;;;;;64.10;23.70;;;;;;;5.09;83.14;97336.07;1674105;85;21004;-83
2022/02/09 20:34:31;;;;;;;99.83;33.95;;;;;;;5.11;83.11;97338.86;1677977;85;21144;-83
2022/02/09 20:36:53;;;;;;;39.27;18.73;;;;;;;5.12;82.59;97340.50;1678757;85;21125;-83
2022/02/09 20:39:24;;;;;;;45.90;17.27;;;;;;;5.08;82.57;97339.59;1681332;85;21112;-83
2022/02/09 20:41:47;;;;;;;74.00;27.15;;;;;;;5.05;82.49;97334.69;1684950;85;21061;-83
2022/02/09 20:44:24;;;;;;;53.33;21.37;;;;;;;5.06;82.49;97332.46;1690941;85;21380;-83
2022/02/09 20:46:46;;;;;;;65.45;24.07;;;;;;;5.06;82.00;97328.59;1682667;84;20997;-83
2022/02/09 20:49:12;;;;;;;91.02;31.85;;;;;;;5.07;81.82;97332.80;1685380;85;21065;-83
2022/02/09 20:51:38;;;;;;;81.10;30.60;;;;;;;5.03;81.58;97322.38;1683588;84;21060;-83
2022/02/09 20:54:04;;;;;;;87.17;31.48;;;;;;;5.03;81.91;97326.24;1687550;83;20965;-83
2022/02/09 20:56:29;;;;;;;108.50;42.27;;;;;;;5.01;81.55;97317.83;1687515;83;21036;-83
2022/02/09 20:59:02;;;;;;;87.55;34.73;;;;;;;5.01;81.75;97308.81;1676305;85;21522;-83
2022/02/09 21:01:37;;;;;;;62.45;26.68;;;;;;;5.01;81.60;97303.66;1662196;85;20969;-83
2022/02/09 21:04:02;;;;;;;57.33;24.92;;;;;;;5.01;81.24;97303.19;1676892;83;20998;-83
2022/02/09 21:09:35;;;;;;;35.15;16.60;;;;;;;5.02;80.83;97302.25;1668952;85;21050;-83
2022/02/09 21:17:56;;;;;;;46.10;20.75;;;;;;;4.99;81.11;97310.70;1663666;85;20954;-83
2022/02/09 21:46:18;;;;;;;30.23;16.57;;;;;;;5.05;79.93;97321.81;1667149;85;21027;-84
2022/02/09 21:53:53;;;;;;;45.90;20.72;;;;;;;5.00;79.40;97313.14;1676105;85;21011;-82
2022/02/09 21:59:03;;;;;;;37.98;17.85;;;;;;;4.97;79.70;97310.01;1661421;85;21068;-83
2022/02/09 22:20:25;;;;;;;46.25;20.97;;;;;;;4.97;79.36;97299.23;1661881;83;21126;-83
2022/02/09 22:27:59;;;;;;;30.25;15.45;;;;;;;4.98;79.37;97300.05;1677280;83;20973;-83
2022/02/09 22:54:50;;;;;;;46.30;23.18;;;;;;;4.94;79.00;97280.64;1684072;83;21003;-83
2022/02/09 22:57:20;;;;;;;720.62;426.75;;;;;;;4.95;78.95;97277.12;1681074;83;20982;-83
2022/02/09 22:59:58;;;;;;;166.32;58.75;;;;;;;4.92;78.84;97268.37;1685404;83;20995;-82
2022/02/09 23:02:24;;;;;;;51.23;25.50;;;;;;;4.91;78.93;97271.89;1660984;83;21414;-83
2022/02/09 23:04:48;;;;;;;26.75;16.77;;;;;;;4.90;78.75;97270.25;1689807;83;21003;-83
2022/02/09 23:09:52;;;;;;;25.60;15.43;;;;;;;4.85;78.78;97265.92;1695974;83;20958;-83
2022/02/09 23:12:27;;;;;;;37.93;20.62;;;;;;;4.82;78.77;97260.09;1684658;83;20969;-83
